createdAt,value
2023-05-20T00:00:50.334Z,2.70
2023-05-20T00:03:17.978Z,2.50
2023-05-20T00:05:45.785Z,2.87
2023-05-20T00:08:13.716Z,2.50
2023-05-20T00:10:41.251Z,2.77
2023-05-20T00:13:09.486Z,3.10
2023-05-20T00:15:37.136Z,2.80
2023-05-20T00:18:05.592Z,2.50
2023-05-20T00:20:33.858Z,2.50
2023-05-20T00:23:01.230Z,2.60
2023-05-20T00:25:30.306Z,2.60
2023-05-20T00:27:57.740Z,2.63
2023-05-20T00:30:25.261Z,2.50
2023-05-20T00:32:52.736Z,2.83
2023-05-20T00:35:20.663Z,2.80
2023-05-20T00:37:48.135Z,2.53
2023-05-20T00:40:16.038Z,2.57
2023-05-20T00:42:43.813Z,2.80
2023-05-20T00:45:11.457Z,2.60
2023-05-20T00:47:39.546Z,2.70
2023-05-20T00:50:08.158Z,2.83
2023-05-20T00:52:35.768Z,2.67
2023-05-20T00:55:03.892Z,2.93
2023-05-20T00:57:31.398Z,2.77
2023-05-20T00:59:59.906Z,2.97
2023-05-20T01:02:27.875Z,3.10
2023-05-20T01:04:56.498Z,3.07
2023-05-20T01:07:25.260Z,3.20
2023-05-20T01:09:54.056Z,3.20
2023-05-20T01:12:25.794Z,3.13
2023-05-20T01:15:00.362Z,2.90
2023-05-20T01:17:29.358Z,2.83
2023-05-20T01:19:57.231Z,2.90
2023-05-20T01:22:26.112Z,3.00
2023-05-20T01:24:53.614Z,2.90
2023-05-20T01:27:22.468Z,3.17
2023-05-20T01:29:53.548Z,3.23
2023-05-20T01:32:25.845Z,3.23
2023-05-20T01:34:53.921Z,3.17
2023-05-20T01:37:22.820Z,3.40
2023-05-20T01:39:50.998Z,3.20
2023-05-20T01:42:20.163Z,3.57
2023-05-20T01:44:47.575Z,3.80
2023-05-20T01:47:15.085Z,3.00
2023-05-20T01:49:42.518Z,3.50
2023-05-20T01:52:09.952Z,3.47
2023-05-20T01:54:37.379Z,3.80
2023-05-20T01:57:04.887Z,3.20
2023-05-20T01:59:32.365Z,3.37
2023-05-20T02:01:59.831Z,2.80
2023-05-20T02:04:27.686Z,3.70
2023-05-20T02:06:55.701Z,3.10
2023-05-20T02:09:23.486Z,3.40
2023-05-20T02:11:51.013Z,3.20
2023-05-20T02:14:18.364Z,3.50
2023-05-20T02:16:47.808Z,3.50
2023-05-20T02:19:17.056Z,3.40
2023-05-20T02:21:46.197Z,3.63
2023-05-20T02:24:13.629Z,3.80
2023-05-20T02:26:41.238Z,3.60
2023-05-20T02:29:08.668Z,4.17
2023-05-20T02:31:36.117Z,3.80
2023-05-20T02:34:04.532Z,3.50
2023-05-20T02:36:32.338Z,4.30
2023-05-20T02:39:01.029Z,3.70
2023-05-20T02:41:28.463Z,4.23
2023-05-20T02:43:55.884Z,4.40
2023-05-20T02:46:23.308Z,3.40
2023-05-20T02:48:50.699Z,3.70
2023-05-20T02:51:18.121Z,4.10
2023-05-20T02:53:45.636Z,4.07
2023-05-20T02:56:13.120Z,3.93
2023-05-20T02:58:41.519Z,3.97
2023-05-20T03:01:09.055Z,4.23
2023-05-20T03:03:37.953Z,4.40
2023-05-20T03:06:05.391Z,4.07
2023-05-20T03:08:33.898Z,3.93
2023-05-20T03:11:01.501Z,4.50
2023-05-20T03:13:28.957Z,4.10
2023-05-20T03:15:56.453Z,4.07
2023-05-20T03:18:23.999Z,3.83
2023-05-20T03:20:51.448Z,4.07
2023-05-20T03:23:18.877Z,4.17
2023-05-20T03:25:46.583Z,4.33
2023-05-20T03:28:14.013Z,3.80
2023-05-20T03:30:41.516Z,4.00
2023-05-20T03:33:08.982Z,4.60
2023-05-20T03:35:36.597Z,4.57
2023-05-20T03:38:04.156Z,4.03
2023-05-20T03:40:31.600Z,3.83
2023-05-20T03:42:59.031Z,4.00
2023-05-20T03:45:26.471Z,4.63
2023-05-20T03:47:53.918Z,3.83
2023-05-20T03:50:21.311Z,4.20
2023-05-20T03:52:48.753Z,5.20
2023-05-20T03:55:16.985Z,5.33
2023-05-20T03:57:44.985Z,5.83
2023-05-20T04:00:14.452Z,5.00
2023-05-20T04:02:42.494Z,4.57
2023-05-20T04:05:10.180Z,5.30
2023-05-20T04:07:37.620Z,4.40
2023-05-20T04:10:05.706Z,4.63
2023-05-20T04:12:33.132Z,5.13
2023-05-20T04:15:04.006Z,4.97
2023-05-20T04:17:31.742Z,5.03
2023-05-20T04:20:02.332Z,4.87
2023-05-20T04:22:29.755Z,4.97
2023-05-20T04:24:57.192Z,4.43
2023-05-20T04:27:25.595Z,4.73
2023-05-20T04:29:55.343Z,5.03
2023-05-20T04:32:22.766Z,5.00
2023-05-20T04:34:50.978Z,5.17
2023-05-20T04:37:18.952Z,4.93
2023-05-20T04:39:48.185Z,4.70
2023-05-20T04:42:15.609Z,4.77
2023-05-20T04:44:43.031Z,5.53
2023-05-20T04:47:10.475Z,4.83
2023-05-20T04:49:38.735Z,5.00
2023-05-20T04:52:06.239Z,5.00
2023-05-20T04:54:33.661Z,5.87
2023-05-20T04:57:01.372Z,4.90
2023-05-20T04:59:28.864Z,5.13
2023-05-20T05:01:56.392Z,5.10
2023-05-20T05:04:24.202Z,5.30
2023-05-20T05:06:51.686Z,5.23
2023-05-20T05:09:19.098Z,5.10
2023-05-20T05:11:46.509Z,5.40
2023-05-20T05:14:13.946Z,5.00
2023-05-20T05:16:41.485Z,5.13
2023-05-20T05:19:09.002Z,5.80
2023-05-20T05:21:36.531Z,4.90
2023-05-20T05:24:03.968Z,5.57
2023-05-20T05:26:31.373Z,5.80
2023-05-20T05:28:58.827Z,5.27
2023-05-20T05:31:26.495Z,5.27
2023-05-20T05:33:53.912Z,5.20
2023-05-20T05:36:21.325Z,5.17
2023-05-20T05:38:48.691Z,5.43
2023-05-20T05:41:16.104Z,5.17
2023-05-20T05:43:43.557Z,5.53
2023-05-20T05:46:11.129Z,4.67
2023-05-20T05:48:38.638Z,5.27
2023-05-20T05:51:06.043Z,5.80
2023-05-20T05:53:33.467Z,5.57
2023-05-20T05:56:00.886Z,5.80
2023-05-20T05:58:28.780Z,6.13
2023-05-20T06:00:56.217Z,5.90
2023-05-20T06:03:23.876Z,6.33
2023-05-20T06:05:51.318Z,5.80
2023-05-20T06:08:18.748Z,6.10
2023-05-20T06:10:52.439Z,5.37
2023-05-20T06:13:20.841Z,5.80
2023-05-20T06:15:49.728Z,5.60
2023-05-20T06:18:17.157Z,5.40
2023-05-20T06:20:44.596Z,5.60
2023-05-20T06:23:12.004Z,5.97
2023-05-20T06:25:39.808Z,6.10
2023-05-20T06:28:08.217Z,5.90
2023-05-20T06:30:35.704Z,6.20
2023-05-20T06:33:03.261Z,5.40
2023-05-20T06:35:30.762Z,6.60
2023-05-20T06:37:59.159Z,5.90
2023-05-20T06:40:27.194Z,6.10
2023-05-20T06:42:54.768Z,5.70
2023-05-20T06:45:22.253Z,6.40
2023-05-20T06:47:49.771Z,6.73
2023-05-20T06:50:17.162Z,6.57
2023-05-20T06:52:44.600Z,6.50
2023-05-20T06:55:12.683Z,6.13
2023-05-20T06:57:40.119Z,5.90
2023-05-20T07:00:08.086Z,6.07
2023-05-20T07:02:36.409Z,5.60
2023-05-20T07:05:03.813Z,5.93
2023-05-20T07:07:31.225Z,5.67
2023-05-20T07:09:59.220Z,6.87
2023-05-20T07:12:26.561Z,6.23
2023-05-20T07:14:53.981Z,7.20
2023-05-20T07:17:21.408Z,7.90
2023-05-20T07:19:48.812Z,7.57
2023-05-20T07:22:16.177Z,7.90
2023-05-20T07:24:43.642Z,7.37
2023-05-20T07:27:11.083Z,7.77
2023-05-20T07:29:39.119Z,7.77
2023-05-20T07:32:06.784Z,7.27
2023-05-20T07:34:34.226Z,7.20
2023-05-20T07:37:01.585Z,7.33
2023-05-20T07:39:29.005Z,8.00
2023-05-20T07:41:56.417Z,9.17
2023-05-20T07:44:23.999Z,8.43
2023-05-20T07:46:51.371Z,7.70
2023-05-20T07:49:18.774Z,8.30
2023-05-20T07:51:46.808Z,9.40
2023-05-20T07:54:15.098Z,8.60
2023-05-20T07:56:42.509Z,8.60
2023-05-20T07:59:09.960Z,8.67
2023-05-20T08:01:37.752Z,8.90
2023-05-20T08:04:05.364Z,10.20
2023-05-20T08:06:32.894Z,9.77
2023-05-20T08:09:00.239Z,9.30
2023-05-20T08:11:27.662Z,9.33
2023-05-20T08:13:55.153Z,9.80
2023-05-20T08:16:22.900Z,9.07
2023-05-20T08:18:50.333Z,8.90
2023-05-20T08:21:17.700Z,9.70
2023-05-20T08:23:45.110Z,9.77
2023-05-20T08:26:12.521Z,9.60
2023-05-20T08:28:39.886Z,10.97
2023-05-20T08:31:07.333Z,11.33
2023-05-20T08:33:34.737Z,9.73
2023-05-20T08:36:02.141Z,9.40
2023-05-20T08:38:29.577Z,10.00
2023-05-20T08:40:57.571Z,9.80
2023-05-20T08:43:25.508Z,10.07
2023-05-20T08:45:53.174Z,9.83
2023-05-20T08:48:22.154Z,9.13
2023-05-20T08:50:51.044Z,9.60
2023-05-20T08:53:19.451Z,9.20
2023-05-20T08:55:47.644Z,9.53
2023-05-20T08:58:16.033Z,9.77
2023-05-20T09:00:43.851Z,9.87
2023-05-20T09:03:11.321Z,9.93
2023-05-20T09:05:38.714Z,9.37
2023-05-20T09:08:09.481Z,9.90
2023-05-20T09:10:37.288Z,9.30
2023-05-20T09:13:05.234Z,9.30
2023-05-20T09:15:33.333Z,8.83
2023-05-20T09:18:03.450Z,9.97
2023-05-20T09:20:31.575Z,9.93
2023-05-20T09:23:02.780Z,9.57
2023-05-20T09:25:30.289Z,10.23
2023-05-20T09:27:57.922Z,10.30
2023-05-20T09:30:26.219Z,11.17
2023-05-20T09:32:54.915Z,10.60
2023-05-20T09:35:23.834Z,10.37
2023-05-20T09:37:55.102Z,9.83
2023-05-20T09:40:29.171Z,10.10
2023-05-20T09:43:03.434Z,9.43
2023-05-20T09:45:31.324Z,11.20
2023-05-20T09:48:00.183Z,11.47
2023-05-20T09:50:29.189Z,10.13
2023-05-20T09:52:56.605Z,9.87
2023-05-20T09:55:24.913Z,10.40
2023-05-20T09:57:52.393Z,8.87
2023-05-20T10:00:20.122Z,10.37
2023-05-20T10:02:49.204Z,9.40
2023-05-20T10:05:18.513Z,10.10
2023-05-20T10:08:04.140Z,10.37
2023-05-20T10:10:48.374Z,9.17
2023-05-20T10:13:19.992Z,10.50
2023-05-20T10:15:48.977Z,10.70
2023-05-20T10:18:20.762Z,8.90
2023-05-20T10:20:49.723Z,9.80
2023-05-20T10:23:23.796Z,10.70
2023-05-20T10:25:54.641Z,9.83
2023-05-20T10:28:38.243Z,9.53
2023-05-20T10:31:18.921Z,9.63
2023-05-20T10:33:46.838Z,9.20
2023-05-20T10:36:25.902Z,10.10
2023-05-20T10:38:54.950Z,10.67
2023-05-20T10:41:23.210Z,9.40
2023-05-20T10:43:52.216Z,9.13
2023-05-20T10:46:31.860Z,10.57
2023-05-20T10:48:48.865Z,9.57
2023-05-20T10:51:17.004Z,10.40
2023-05-20T10:53:46.045Z,9.60
2023-05-20T10:56:19.950Z,10.83
2023-05-20T10:58:48.249Z,9.97
2023-05-20T11:01:16.429Z,9.67
2023-05-20T11:03:48.051Z,10.50
2023-05-20T11:06:18.236Z,9.73
2023-05-20T11:08:46.593Z,11.13
2023-05-20T11:11:14.745Z,9.93
2023-05-20T11:13:42.254Z,10.37
2023-05-20T11:16:09.738Z,10.80
2023-05-20T11:18:37.311Z,9.80
2023-05-20T11:21:04.743Z,9.80
2023-05-20T11:23:32.376Z,10.57
2023-05-20T11:25:59.876Z,10.30
2023-05-20T11:28:27.295Z,9.63
2023-05-20T11:30:56.292Z,10.93
2023-05-20T11:33:25.312Z,9.57
2023-05-20T11:35:53.522Z,9.97
2023-05-20T11:38:21.372Z,9.50
2023-05-20T11:40:51.444Z,9.90
2023-05-20T11:43:19.766Z,9.90
2023-05-20T11:45:48.182Z,9.63
2023-05-20T11:48:15.881Z,10.20
2023-05-20T11:50:44.427Z,9.30
2023-05-20T11:53:13.409Z,9.20
2023-05-20T11:55:51.956Z,8.93
2023-05-20T11:58:20.920Z,8.43
2023-05-20T12:00:53.408Z,8.87
2023-05-20T12:03:17.914Z,9.17
2023-05-20T12:05:47.038Z,8.97
2023-05-20T12:08:14.722Z,9.47
2023-05-20T12:10:42.750Z,9.03
2023-05-20T12:13:11.346Z,9.93
2023-05-20T12:15:39.073Z,9.00
2023-05-20T12:18:06.562Z,8.83
2023-05-20T12:20:34.300Z,9.90
2023-05-20T12:23:02.246Z,9.10
2023-05-20T12:25:29.726Z,7.93
2023-05-20T12:27:57.126Z,8.73
2023-05-20T12:30:24.564Z,8.60
2023-05-20T12:32:52.543Z,9.77
2023-05-20T12:35:24.230Z,9.67
2023-05-20T12:37:51.644Z,9.33
2023-05-20T12:40:19.079Z,10.20
2023-05-20T12:42:46.510Z,9.60
2023-05-20T12:45:13.921Z,9.60
2023-05-20T12:47:41.481Z,10.20
2023-05-20T12:50:08.937Z,9.77
2023-05-20T12:52:36.348Z,10.20
2023-05-20T12:55:05.415Z,9.77
2023-05-20T12:57:32.832Z,9.83
2023-05-20T13:00:00.266Z,10.80
2023-05-20T13:02:27.736Z,9.53
2023-05-20T13:04:55.464Z,8.90
2023-05-20T13:07:22.903Z,10.00
2023-05-20T13:09:50.752Z,10.70
2023-05-20T13:12:18.161Z,10.20
2023-05-20T13:14:46.063Z,10.30
2023-05-20T13:17:13.533Z,10.27
2023-05-20T13:19:40.939Z,9.70
2023-05-20T13:22:08.939Z,9.00
2023-05-20T13:24:36.486Z,9.90
2023-05-20T13:27:04.520Z,10.37
2023-05-20T13:29:31.864Z,10.70
2023-05-20T13:32:01.610Z,10.80
2023-05-20T13:34:28.383Z,11.00
2023-05-20T13:36:55.831Z,11.00
2023-05-20T13:39:23.728Z,10.27
2023-05-20T13:41:52.761Z,10.20
2023-05-20T13:44:20.483Z,11.23
2023-05-20T13:49:27.678Z,10.30
2023-05-20T13:51:55.065Z,9.10
2023-05-20T13:54:22.434Z,10.00
2023-05-20T13:56:49.918Z,10.20
2023-05-20T13:59:17.555Z,10.33
2023-05-20T14:01:45.731Z,9.60
2023-05-20T14:04:14.167Z,9.23
2023-05-20T14:06:42.041Z,9.70
2023-05-20T14:09:09.432Z,8.50
2023-05-20T14:11:37.272Z,9.50
2023-05-20T14:14:04.708Z,9.83
2023-05-20T14:16:32.871Z,9.30
2023-05-20T14:19:00.452Z,9.10
2023-05-20T14:21:27.913Z,10.50
2023-05-20T14:23:55.713Z,10.10
2023-05-20T14:26:23.135Z,9.70
2023-05-20T14:28:51.917Z,9.80
2023-05-20T14:31:19.343Z,9.60
2023-05-20T14:33:47.138Z,9.60
2023-05-20T14:36:14.661Z,10.37
2023-05-20T14:38:42.098Z,10.00
2023-05-20T14:41:09.531Z,9.87
2023-05-20T14:43:36.982Z,10.00
2023-05-20T14:46:04.462Z,10.13
2023-05-20T14:48:31.894Z,11.37
2023-05-20T14:50:59.372Z,10.40
2023-05-20T14:53:26.795Z,10.73
2023-05-20T14:55:54.219Z,9.73
2023-05-20T14:58:21.644Z,10.57
2023-05-20T15:00:49.124Z,9.90
2023-05-20T15:03:16.579Z,8.90
2023-05-20T15:05:44.105Z,10.43
2023-05-20T15:08:11.722Z,10.57
2023-05-20T15:10:39.280Z,10.10
2023-05-20T15:13:06.667Z,9.60
2023-05-20T15:15:34.695Z,10.47
2023-05-20T15:18:02.196Z,9.83
2023-05-20T15:20:29.821Z,9.67
2023-05-20T15:22:59.155Z,9.67
2023-05-20T15:25:26.641Z,9.67
2023-05-20T15:27:53.991Z,10.30
2023-05-20T15:30:22.667Z,10.50
2023-05-20T15:32:50.192Z,9.63
2023-05-20T15:35:18.156Z,10.60
2023-05-20T15:37:45.524Z,10.70
2023-05-20T15:40:13.058Z,9.53
2023-05-20T15:42:40.624Z,9.50
2023-05-20T15:45:08.230Z,11.30
2023-05-20T15:47:35.700Z,9.67
2023-05-20T15:50:05.069Z,9.80
2023-05-20T15:52:32.524Z,10.23
2023-05-20T15:55:00.528Z,9.70
2023-05-20T15:57:29.120Z,10.20
2023-05-20T15:59:57.749Z,10.00
2023-05-20T16:02:25.525Z,9.50
2023-05-20T16:04:53.049Z,9.77
2023-05-20T16:07:20.483Z,9.60
2023-05-20T16:09:47.890Z,10.90
2023-05-20T16:12:16.693Z,10.50
2023-05-20T16:14:44.701Z,11.60
2023-05-20T16:17:12.463Z,10.40
2023-05-20T16:19:39.914Z,10.83
2023-05-20T16:22:09.066Z,10.00
2023-05-20T16:24:36.497Z,10.13
2023-05-20T16:27:03.995Z,10.90
2023-05-20T16:29:31.411Z,11.90
2023-05-20T16:31:58.882Z,10.93
2023-05-20T16:34:26.374Z,10.40
2023-05-20T16:36:53.744Z,10.93
2023-05-20T16:39:21.164Z,11.00
2023-05-20T16:41:48.578Z,11.20
2023-05-20T16:44:16.447Z,10.57
2023-05-20T16:46:44.304Z,10.97
2023-05-20T16:49:11.721Z,10.77
2023-05-20T16:51:39.079Z,10.80
2023-05-20T16:54:06.625Z,10.77
2023-05-20T16:56:35.078Z,10.77
2023-05-20T16:59:02.925Z,12.30
2023-05-20T17:01:30.432Z,10.50
2023-05-20T17:03:57.889Z,10.40
2023-05-20T17:06:25.315Z,10.57
2023-05-20T17:08:52.747Z,11.27
2023-05-20T17:11:20.637Z,9.90
2023-05-20T17:13:48.063Z,10.50
2023-05-20T17:16:15.684Z,10.20
2023-05-20T17:18:43.082Z,10.73
2023-05-20T17:21:10.779Z,10.80
2023-05-20T17:23:38.212Z,11.17
2023-05-20T17:26:05.646Z,10.53
2023-05-20T17:28:33.074Z,11.10
2023-05-20T17:31:00.678Z,11.30
2023-05-20T17:33:28.180Z,11.17
2023-05-20T17:35:56.296Z,9.93
2023-05-20T17:38:25.301Z,10.53
2023-05-20T17:40:53.454Z,10.07
2023-05-20T17:43:21.464Z,11.37
2023-05-20T17:45:49.047Z,11.63
2023-05-20T17:48:16.517Z,10.97
2023-05-20T17:50:44.163Z,11.10
2023-05-20T17:53:11.587Z,12.23
2023-05-20T17:55:39.481Z,11.60
2023-05-20T17:58:10.021Z,11.87
2023-05-20T18:00:39.074Z,12.80
2023-05-20T18:03:06.620Z,12.13
2023-05-20T18:05:34.222Z,11.70
2023-05-20T18:08:01.948Z,11.80
2023-05-20T18:10:29.413Z,12.33
2023-05-20T18:12:56.866Z,12.57
2023-05-20T18:15:24.278Z,13.17
2023-05-20T18:17:52.783Z,12.93
2023-05-20T18:20:20.473Z,12.33
2023-05-20T18:22:49.550Z,13.43
2023-05-20T18:25:16.967Z,13.37
2023-05-20T18:27:44.325Z,12.13
2023-05-20T18:30:11.699Z,13.50
2023-05-20T18:32:39.331Z,14.23
2023-05-20T18:35:07.021Z,13.60
2023-05-20T18:37:34.515Z,14.00
2023-05-20T18:40:02.123Z,14.30
2023-05-20T18:42:29.540Z,13.83
2023-05-20T18:44:56.968Z,13.57
2023-05-20T18:47:24.439Z,13.87
2023-05-20T18:49:51.816Z,13.60
2023-05-20T18:52:19.241Z,14.03
2023-05-20T18:54:47.157Z,12.80
2023-05-20T18:57:14.535Z,14.00
2023-05-20T18:59:41.945Z,15.37
2023-05-20T19:02:09.373Z,14.00
2023-05-20T19:04:36.829Z,13.93
2023-05-20T19:07:04.237Z,15.57
2023-05-20T19:09:31.669Z,14.80
2023-05-20T19:11:59.187Z,15.30
2023-05-20T19:14:26.808Z,15.60
2023-05-20T19:16:54.276Z,14.80
2023-05-20T19:19:21.794Z,15.47
2023-05-20T19:21:49.190Z,16.10
2023-05-20T19:24:17.575Z,15.93
2023-05-20T19:26:45.003Z,15.77
2023-05-20T19:29:14.066Z,15.43
2023-05-20T19:31:43.046Z,15.43
2023-05-20T19:34:10.419Z,16.20
2023-05-20T19:36:38.202Z,15.90
2023-05-20T19:39:05.721Z,17.03
2023-05-20T19:41:33.118Z,16.37
2023-05-20T19:44:01.224Z,16.80
2023-05-20T19:46:28.617Z,17.90
2023-05-20T19:48:56.470Z,18.03
2023-05-20T19:51:23.896Z,17.17
2023-05-20T19:53:51.395Z,18.07
2023-05-20T19:56:20.459Z,17.87
2023-05-20T19:58:48.255Z,18.13
2023-05-20T20:01:16.821Z,16.80
2023-05-20T20:03:45.771Z,17.57
2023-05-20T20:06:13.459Z,16.33
2023-05-20T20:08:41.388Z,17.00
2023-05-20T20:11:08.983Z,17.20
2023-05-20T20:13:36.417Z,16.53
2023-05-20T20:16:03.869Z,17.30
2023-05-20T20:18:32.350Z,17.37
2023-05-20T20:21:00.424Z,18.97
2023-05-20T20:23:27.812Z,18.53
2023-05-20T20:25:56.572Z,17.83
2023-05-20T20:28:23.925Z,16.43
2023-05-20T20:30:51.387Z,19.20
2023-05-20T20:33:19.373Z,18.10
2023-05-20T20:35:47.131Z,19.43
2023-05-20T20:38:15.234Z,19.97
2023-05-20T20:40:42.797Z,18.80
2023-05-20T20:43:10.926Z,20.03
2023-05-20T20:45:38.450Z,18.40
2023-05-20T20:48:07.509Z,18.90
2023-05-20T20:50:35.625Z,19.83
2023-05-20T20:53:03.137Z,18.30
2023-05-20T20:55:30.925Z,19.20
2023-05-20T20:58:00.293Z,19.87
2023-05-20T21:00:27.727Z,20.00
2023-05-20T21:02:55.182Z,19.67
2023-05-20T21:05:24.206Z,19.40
2023-05-20T21:07:53.214Z,18.90
2023-05-20T21:10:20.991Z,19.00
2023-05-20T21:12:48.446Z,19.70
2023-05-20T21:15:15.932Z,20.50
2023-05-20T21:17:43.436Z,18.83
2023-05-20T21:20:11.891Z,19.43
2023-05-20T21:22:39.246Z,20.70
2023-05-20T21:25:07.066Z,19.67
2023-05-20T21:27:34.423Z,20.80
2023-05-20T21:30:01.922Z,19.00
2023-05-20T21:32:29.389Z,19.60
2023-05-20T21:34:58.344Z,18.10
2023-05-20T21:37:25.933Z,18.80
2023-05-20T21:39:53.365Z,19.47
2023-05-20T21:42:20.798Z,19.30
2023-05-20T21:44:48.221Z,20.67
2023-05-20T21:47:16.042Z,19.70
2023-05-20T21:49:43.477Z,19.00
2023-05-20T21:52:11.366Z,18.13
2023-05-20T21:54:38.790Z,19.50
2023-05-20T21:57:06.251Z,19.57
2023-05-20T21:59:34.043Z,20.07
2023-05-20T22:02:01.617Z,19.33
2023-05-20T22:04:29.073Z,21.37
2023-05-20T22:06:57.074Z,20.83
2023-05-20T22:09:24.434Z,17.77
2023-05-20T22:11:52.522Z,19.00
2023-05-20T22:14:19.939Z,19.70
2023-05-20T22:16:48.259Z,19.57
2023-05-20T22:19:16.336Z,19.40
2023-05-20T22:24:14.073Z,18.80
2023-05-20T22:26:41.451Z,19.60
2023-05-20T22:29:08.952Z,18.97
2023-05-20T22:31:37.833Z,19.13
2023-05-20T22:34:05.649Z,21.37
2023-05-20T22:36:35.955Z,19.90
2023-05-20T22:39:04.224Z,19.97
2023-05-20T22:41:32.088Z,20.93
2023-05-20T22:43:59.511Z,20.03
2023-05-20T22:46:26.985Z,20.27
2023-05-20T22:48:55.133Z,18.60
2023-05-20T22:51:24.317Z,19.43
2023-05-20T22:53:51.740Z,18.37
2023-05-20T22:56:19.768Z,18.53
2023-05-20T22:58:47.156Z,19.07
2023-05-20T23:01:16.817Z,19.40
2023-05-20T23:03:45.768Z,18.47
2023-05-20T23:06:13.190Z,20.00
2023-05-20T23:08:42.249Z,20.10
2023-05-20T23:11:09.689Z,19.23
2023-05-20T23:13:37.295Z,18.90
2023-05-20T23:16:05.842Z,18.90
2023-05-20T23:18:33.296Z,20.10
2023-05-20T23:21:00.715Z,18.53
2023-05-20T23:23:31.651Z,18.53
2023-05-20T23:25:57.761Z,19.03
2023-05-20T23:28:25.199Z,17.60
2023-05-20T23:30:52.643Z,19.37
2023-05-20T23:33:24.857Z,19.53
2023-05-20T23:35:49.079Z,19.67
2023-05-20T23:38:16.879Z,20.00
2023-05-20T23:40:44.328Z,20.00
2023-05-20T23:43:11.736Z,18.30
2023-05-20T23:45:39.192Z,18.33
2023-05-20T23:48:08.245Z,19.00
2023-05-20T23:50:35.683Z,18.20
2023-05-20T23:53:03.489Z,19.53
2023-05-20T23:55:31.671Z,19.00
2023-05-20T23:57:59.417Z,20.13
